Johnston, Mississippi
Current Conditions -  °F | °C
As of 5:36 PM on Thursday 18 Dec 2014 (Local Time) from KMCB Reporting Station
Overcast Overcast  
Wind Chill: 50°   Ceiling: 2800
Heat Index: 50°   Visibility: 8mi
Dew Point: 48°   Wind: 5mph
Humidity: 93%   Direction: 30°NNE
Pressure: 30.13"   Gusts: NA
Location:  31.2993°N, 90.4958°W
Report Text: KMCB 182336Z AUTO 03004KT 8SM SCT004 OVC028 10/09 A3013 RMK AO2 T01000089 $
Loading
Personal Weather Stations






























Interactive Weather Map New forecast layout! Learn more

10-Day Weather Forecast

Advertisements
Track Severe Weather on mobile